Time;durP1;ratioP1;P1;durP2;ratioP2;P2;SDS_P1;SDS_P2;PMS_P1;PMS_P2;Temp;Humidity;BMP_temperature;BMP_pressure;BME280_temperature;BME280_humidity;BME280_pressure;Samples;Min_cycle;Max_cycle;Signal;HPM_P1;HPM_P2
2022/02/12 00:01:35;;;;;;;;;;;1.30;99.90;;;;;;4977913;28;19914;-73
2022/02/12 00:04:00;;;;;;;;;;;1.40;99.90;;;;;;4964499;28;19910;-73
2022/02/12 00:06:26;;;;;;;;;;;1.30;99.90;;;;;;4964231;28;19911;-73
2022/02/12 00:08:52;;;;;;;;;;;1.40;99.90;;;;;;4964366;28;19968;-73
2022/02/12 00:11:17;;;;;;;;;;;1.40;99.90;;;;;;4959839;28;19917;-73
2022/02/12 00:13:43;;;;;;;;;;;1.30;99.90;;;;;;4964880;28;19914;-73
2022/02/12 00:16:09;;;;;;;;;;;1.30;99.90;;;;;;4964069;28;19914;-73
2022/02/12 00:18:34;;;;;;;;;;;1.20;99.90;;;;;;4963619;28;19917;-73
2022/02/12 00:21:00;;;;;;;;;;;1.30;99.90;;;;;;4968256;28;19910;-74
2022/02/12 00:23:25;;;;;;;;;;;1.20;99.90;;;;;;4963083;28;20012;-73
2022/02/12 00:25:51;;;;;;;;;;;1.20;99.90;;;;;;4958611;28;19933;-73
2022/02/12 00:28:17;;;;;;;;;;;1.20;99.90;;;;;;4962862;28;19910;-73
2022/02/12 00:30:43;;;;;;;;;;;1.20;99.90;;;;;;4961091;28;19910;-73
2022/02/12 00:33:08;;;;;;;;;;;1.20;99.90;;;;;;4958510;28;19913;-73
2022/02/12 00:35:34;;;;;;;;;;;1.10;99.90;;;;;;4963310;28;19914;-73
2022/02/12 00:38:00;;;;;;;;;;;1.10;99.90;;;;;;4962289;28;20281;-73
2022/02/12 00:40:27;;;;;;;;;;;1.10;99.90;;;;;;4961583;28;19914;-73
2022/02/12 00:42:53;;;;;;;;;;;1.10;99.90;;;;;;4961635;28;19914;-73
2022/02/12 00:45:18;;;;;;;;;;;1.10;99.90;;;;;;4961118;28;20005;-73
2022/02/12 00:47:44;;;;;;;;;;;1.10;99.90;;;;;;4959556;28;19914;-73
2022/02/12 00:50:10;;;;;;;;;;;1.10;99.90;;;;;;4962054;28;20376;-73
2022/02/12 00:52:35;;;;;;;;;;;1.10;99.90;;;;;;4962664;28;19906;-73
2022/02/12 00:55:01;;;;;;;;;;;1.20;99.90;;;;;;4960876;28;19910;-73
2022/02/12 00:57:26;;;;;;;;;;;1.10;99.90;;;;;;4959616;28;19997;-73
2022/02/12 00:59:52;;;;;;;;;;;1.10;99.90;;;;;;4961700;28;20336;-73
2022/02/12 01:02:17;;;;;;;;;;;1.10;99.90;;;;;;4959002;28;19910;-73
2022/02/12 01:04:43;;;;;;;;;;;1.10;99.90;;;;;;4959083;28;19913;-73
2022/02/12 01:07:08;;;;;;;;;;;1.10;99.90;;;;;;4961044;28;20280;-73
2022/02/12 01:09:34;;;;;;;;;;;1.10;99.90;;;;;;4961635;28;19961;-73
2022/02/12 01:12:01;;;;;;;;;;;1.10;99.90;;;;;;4959738;28;19917;-73
2022/02/12 01:14:27;;;;;;;;;;;1.10;99.90;;;;;;4958780;28;19918;-73
2022/02/12 01:16:52;;;;;;;;;;;1.10;99.90;;;;;;4958875;28;19921;-73
2022/02/12 01:19:18;;;;;;;;;;;1.10;99.90;;;;;;4960510;28;19910;-73
2022/02/12 01:21:44;;;;;;;;;;;1.10;99.90;;;;;;4960826;28;19911;-73
2022/02/12 01:24:09;;;;;;;;;;;1.10;99.90;;;;;;4961805;28;19917;-72
2022/02/12 01:26:35;;;;;;;;;;;1.10;99.90;;;;;;4958239;28;19910;-72
2022/02/12 01:29:01;;;;;;;;;;;1.10;99.90;;;;;;4959104;28;19918;-73
2022/02/12 01:31:26;;;;;;;;;;;1.10;99.90;;;;;;4962109;28;20335;-72
2022/02/12 01:33:52;;;;;;;;;;;1.10;99.90;;;;;;4960658;28;19918;-73
2022/02/12 01:36:17;;;;;;;;;;;1.10;99.90;;;;;;4960424;28;19906;-73
2022/02/12 01:38:43;;;;;;;;;;;1.10;99.90;;;;;;4959826;28;20514;-73
2022/02/12 01:41:09;;;;;;;;;;;1.10;99.90;;;;;;4960194;28;20005;-73
2022/02/12 01:43:34;;;;;;;;;;;1.10;99.90;;;;;;4960730;28;19918;-73
2022/02/12 01:46:00;;;;;;;;;;;1.10;99.90;;;;;;4959299;28;19914;-73
2022/02/12 01:48:25;;;;;;;;;;;1.10;99.90;;;;;;4960352;28;20554;-73
2022/02/12 01:50:51;;;;;;;;;;;1.10;99.90;;;;;;4958227;28;19918;-73
2022/02/12 01:53:17;;;;;;;;;;;1.10;99.90;;;;;;4959300;28;20274;-73
2022/02/12 01:55:43;;;;;;;;;;;1.10;99.90;;;;;;4960111;28;19969;-73
2022/02/12 01:58:09;;;;;;;;;;;1.10;99.90;;;;;;4978034;28;19910;-73
2022/02/12 02:00:35;;;;;;;;;;;1.20;99.90;;;;;;4960830;28;19914;-73
2022/02/12 02:03:00;;;;;;;;;;;1.10;99.90;;;;;;4960235;28;19906;-73
2022/02/12 02:05:26;;;;;;;;;;;1.10;99.90;;;;;;4959246;28;19946;-73
2022/02/12 02:07:52;;;;;;;;;;;1.00;99.90;;;;;;4959856;28;19945;-73
2022/02/12 02:10:18;;;;;;;;;;;1.00;99.90;;;;;;4960317;28;19910;-73
2022/02/12 02:12:43;;;;;;;;;;;1.00;99.90;;;;;;4957954;28;19918;-73
2022/02/12 02:15:09;;;;;;;;;;;1.10;99.90;;;;;;4959672;28;20054;-73
2022/02/12 02:17:35;;;;;;;;;;;1.10;99.90;;;;;;4960522;28;19925;-73
2022/02/12 02:20:02;;;;;;;;;;;1.00;99.90;;;;;;4960024;28;19906;-73
2022/02/12 02:22:43;;;;;;;;;;;1.10;99.90;;;;;;4959677;28;20008;-73
2022/02/12 02:25:09;;;;;;;;;;;1.10;99.90;;;;;;4960749;28;19910;-73
2022/02/12 02:27:34;;;;;;;;;;;1.10;99.90;;;;;;4948324;28;20435;-73
2022/02/12 02:30:00;;;;;;;;;;;1.10;99.90;;;;;;4959995;28;19911;-73
2022/02/12 02:32:25;;;;;;;;;;;1.10;99.90;;;;;;4959374;28;19907;-73
2022/02/12 02:34:52;;;;;;;;;;;1.10;99.90;;;;;;4960024;28;20320;-73
2022/02/12 02:37:19;;;;;;;;;;;1.10;99.90;;;;;;4959623;28;19910;-73
2022/02/12 02:39:44;;;;;;;;;;;1.10;99.90;;;;;;4959140;28;19993;-73
2022/02/12 02:42:10;;;;;;;;;;;1.10;99.90;;;;;;4960533;28;20009;-73
2022/02/12 02:44:35;;;;;;;;;;;1.10;99.90;;;;;;4959822;28;19944;-73
2022/02/12 02:47:32;;;;;;;;;;;1.10;99.90;;;;;;4961639;28;19917;-73
2022/02/12 02:49:47;;;;;;;;;;;1.20;99.90;;;;;;4960266;28;20288;-73
2022/02/12 02:57:40;;;;;;;;;;;1.30;99.90;;;;;;4960978;28;20379;-73
2022/02/12 03:00:06;;;;;;;;;;;1.30;99.90;;;;;;4959776;28;19910;-73
2022/02/12 03:02:32;;;;;;;;;;;1.40;99.90;;;;;;4944285;28;19914;-73
2022/02/12 03:04:57;;;;;;;;;;;1.40;99.90;;;;;;4959134;28;19950;-73
2022/02/12 03:07:23;;;;;;;;;;;1.40;99.90;;;;;;4960362;28;19949;-74
2022/02/12 03:09:48;;;;;;;;;;;1.40;99.90;;;;;;4957392;28;19910;-73
2022/02/12 03:12:14;;;;;;;;;;;1.40;99.90;;;;;;4960288;28;20332;-74
2022/02/12 03:14:39;;;;;;;;;;;1.50;99.90;;;;;;4963403;28;20311;-74
2022/02/12 03:17:05;;;;;;;;;;;1.50;99.90;;;;;;4962862;28;19910;-73
2022/02/12 03:19:30;;;;;;;;;;;1.50;99.90;;;;;;4962527;28;19910;-74
2022/02/12 03:21:56;;;;;;;;;;;1.60;99.90;;;;;;4962644;28;20293;-74
2022/02/12 03:24:22;;;;;;;;;;;1.60;99.90;;;;;;4977494;28;20000;-73
2022/02/12 03:26:47;;;;;;;;;;;1.60;99.90;;;;;;4962642;28;19918;-74
2022/02/12 03:29:13;;;;;;;;;;;1.60;99.90;;;;;;4964687;28;20005;-73
2022/02/12 03:31:38;;;;;;;;;;;1.60;99.90;;;;;;4962826;28;19914;-73
2022/02/12 03:34:04;;;;;;;;;;;1.70;99.90;;;;;;4962637;28;19914;-73
2022/02/12 03:36:29;;;;;;;;;;;1.70;99.90;;;;;;4962075;28;19968;-73
2022/02/12 03:38:55;;;;;;;;;;;1.60;99.90;;;;;;4962106;28;20312;-74
2022/02/12 03:41:21;;;;;;;;;;;1.60;99.90;;;;;;4961382;28;19964;-73
2022/02/12 03:43:46;;;;;;;;;;;1.50;99.90;;;;;;4965167;28;19922;-73
2022/02/12 03:46:12;;;;;;;;;;;1.50;99.90;;;;;;4962666;28;19914;-74
2022/02/12 03:48:38;;;;;;;;;;;1.50;99.90;;;;;;4961282;28;19914;-73
2022/02/12 03:51:03;;;;;;;;;;;1.50;99.90;;;;;;4960411;28;20384;-73
2022/02/12 03:53:29;;;;;;;;;;;1.50;99.90;;;;;;4961971;28;20049;-73
2022/02/12 03:55:54;;;;;;;;;;;1.50;99.90;;;;;;4962187;28;19918;-73
2022/02/12 03:58:20;;;;;;;;;;;1.50;99.90;;;;;;4963037;28;20009;-73
2022/02/12 04:00:47;;;;;;;;;;;1.50;99.90;;;;;;4959507;28;19921;-73
2022/02/12 04:03:13;;;;;;;;;;;1.50;99.90;;;;;;4961335;28;20409;-73
2022/02/12 04:05:41;;;;;;;;;;;1.50;99.90;;;;;;4963402;28;19910;-73
2022/02/12 04:08:06;;;;;;;;;;;1.60;99.90;;;;;;4961079;28;19918;-73
2022/02/12 04:10:35;;;;;;;;;;;1.60;99.90;;;;;;4961163;28;19918;-73
2022/02/12 04:13:01;;;;;;;;;;;1.60;99.90;;;;;;4960470;28;20049;-73
2022/02/12 04:15:27;;;;;;;;;;;1.60;99.90;;;;;;4961431;28;19914;-73
2022/02/12 04:17:53;;;;;;;;;;;1.70;99.90;;;;;;4964556;28;20283;-73
2022/02/12 04:20:22;;;;;;;;;;;1.80;99.90;;;;;;4960157;28;20359;-73
2022/02/12 04:22:47;;;;;;;;;;;1.70;99.90;;;;;;4961419;28;19964;-73
2022/02/12 04:25:14;;;;;;;;;;;1.70;99.90;;;;;;4961855;28;19910;-73
2022/02/12 04:27:40;;;;;;;;;;;1.70;99.90;;;;;;4959663;28;20372;-73
2022/02/12 04:30:06;;;;;;;;;;;1.70;99.90;;;;;;4963037;28;19910;-72
2022/02/12 04:32:32;;;;;;;;;;;1.70;99.90;;;;;;4958803;28;19924;-73
2022/02/12 04:34:59;;;;;;;;;;;1.70;99.90;;;;;;4960776;28;19918;-72
2022/02/12 04:37:25;;;;;;;;;;;1.70;99.90;;;;;;4963189;28;20187;-72
2022/02/12 04:39:51;;;;;;;;;;;1.60;99.90;;;;;;4960458;28;20143;-73
2022/02/12 04:42:17;;;;;;;;;;;1.60;99.90;;;;;;4975999;28;19965;-72
2022/02/12 04:44:47;;;;;;;;;;;1.60;99.90;;;;;;4960532;28;20792;-72
2022/02/12 04:47:13;;;;;;;;;;;1.60;99.90;;;;;;4961355;28;19910;-72
2022/02/12 04:49:42;;;;;;;;;;;1.60;99.90;;;;;;4959997;28;19914;-72
2022/02/12 04:52:11;;;;;;;;;;;1.60;99.90;;;;;;4963527;28;19936;-71
2022/02/12 04:54:36;;;;;;;;;;;1.60;99.90;;;;;;4961534;28;19919;-71
2022/02/12 04:57:02;;;;;;;;;;;1.70;99.90;;;;;;4951168;28;20287;-72
2022/02/12 04:59:28;;;;;;;;;;;1.80;99.90;;;;;;4961153;28;20001;-71
2022/02/12 05:01:53;;;;;;;;;;;1.80;99.90;;;;;;4960625;28;19910;-73
2022/02/12 05:04:19;;;;;;;;;;;1.80;99.90;;;;;;4959171;28;19956;-72
2022/02/12 05:06:45;;;;;;;;;;;1.80;99.90;;;;;;4959666;28;19925;-72
2022/02/12 05:09:11;;;;;;;;;;;1.80;99.90;;;;;;4959712;28;20004;-72
2022/02/12 05:11:41;;;;;;;;;;;1.90;99.90;;;;;;4960423;28;19910;-72
2022/02/12 05:14:07;;;;;;;;;;;1.80;99.90;;;;;;4958807;28;19972;-71
2022/02/12 05:16:33;;;;;;;;;;;1.80;99.90;;;;;;4961394;28;19914;-72
2022/02/12 05:18:58;;;;;;;;;;;1.80;99.90;;;;;;4960771;28;19990;-72
2022/02/12 05:21:24;;;;;;;;;;;1.70;99.90;;;;;;4959818;28;19918;-73
2022/02/12 05:23:49;;;;;;;;;;;1.70;99.90;;;;;;4960977;28;19910;-73
2022/02/12 05:26:16;;;;;;;;;;;1.70;99.90;;;;;;4962261;28;20471;-72
2022/02/12 05:28:42;;;;;;;;;;;1.70;99.90;;;;;;4966634;28;19911;-73
2022/02/12 05:31:07;;;;;;;;;;;1.60;99.90;;;;;;4962030;28;20416;-72
2022/02/12 05:33:37;;;;;;;;;;;1.60;99.90;;;;;;4959830;28;19977;-72
2022/02/12 05:36:04;;;;;;;;;;;1.60;99.90;;;;;;4962708;28;20005;-72
2022/02/12 05:38:29;;;;;;;;;;;1.60;99.90;;;;;;4960918;28;19914;-73
2022/02/12 05:40:55;;;;;;;;;;;1.60;99.90;;;;;;4960869;28;20292;-73
2022/02/12 05:43:20;;;;;;;;;;;1.50;99.90;;;;;;4959261;28;20004;-73
2022/02/12 05:45:46;;;;;;;;;;;1.50;99.90;;;;;;4973430;28;19921;-72
2022/02/12 05:48:11;;;;;;;;;;;1.50;99.90;;;;;;4959876;28;19919;-73
2022/02/12 05:50:37;;;;;;;;;;;1.50;99.90;;;;;;4974254;28;20355;-72
2022/02/12 05:53:02;;;;;;;;;;;1.40;99.90;;;;;;4960792;28;19918;-73
2022/02/12 05:55:28;;;;;;;;;;;1.40;99.90;;;;;;4958847;28;19911;-72
2022/02/12 05:57:59;;;;;;;;;;;1.40;99.90;;;;;;4989092;23;20287;-73
2022/02/12 06:00:26;;;;;;;;;;;1.40;99.90;;;;;;4962976;28;19910;-72
2022/02/12 06:02:51;;;;;;;;;;;1.40;99.90;;;;;;4962082;28;19949;-72
2022/02/12 06:05:17;;;;;;;;;;;1.40;99.90;;;;;;4980234;28;19965;-72
2022/02/12 06:07:43;;;;;;;;;;;1.30;99.90;;;;;;4964731;28;19917;-72
2022/02/12 06:10:08;;;;;;;;;;;1.40;99.90;;;;;;4974920;28;20287;-72
2022/02/12 06:12:34;;;;;;;;;;;1.40;99.90;;;;;;4978934;28;19956;-72
2022/02/12 06:14:59;;;;;;;;;;;1.30;99.90;;;;;;4980575;28;19997;-72
2022/02/12 06:17:25;;;;;;;;;;;1.30;99.90;;;;;;4979818;28;19971;-72
2022/02/12 06:19:51;;;;;;;;;;;1.30;99.90;;;;;;4961774;28;19962;-71
2022/02/12 06:22:16;;;;;;;;;;;1.30;99.90;;;;;;4962085;28;19913;-72
2022/02/12 06:24:42;;;;;;;;;;;1.30;99.90;;;;;;4983241;28;19963;-73
2022/02/12 06:27:07;;;;;;;;;;;1.30;99.90;;;;;;4969055;28;19981;-72
2022/02/12 06:29:33;;;;;;;;;;;1.30;99.90;;;;;;4988965;28;19910;-72
2022/02/12 06:31:59;;;;;;;;;;;1.30;99.90;;;;;;4946143;28;20371;-72
2022/02/12 06:34:25;;;;;;;;;;;1.40;99.90;;;;;;4980468;28;20437;-73
2022/02/12 06:36:50;;;;;;;;;;;1.30;99.90;;;;;;4980104;28;19914;-72
2022/02/12 06:39:16;;;;;;;;;;;1.30;99.90;;;;;;4982062;28;19910;-72
2022/02/12 06:41:42;;;;;;;;;;;1.30;99.90;;;;;;4978908;28;19906;-72
2022/02/12 06:44:08;;;;;;;;;;;1.20;99.90;;;;;;4978740;28;19960;-72
2022/02/12 06:46:34;;;;;;;;;;;1.20;99.90;;;;;;4984208;28;19905;-72
2022/02/12 06:48:59;;;;;;;;;;;1.20;99.90;;;;;;4982415;28;19909;-72
2022/02/12 06:51:25;;;;;;;;;;;1.30;99.90;;;;;;4981772;28;19913;-72
2022/02/12 06:53:50;;;;;;;;;;;1.20;99.90;;;;;;4962353;28;19917;-71
2022/02/12 06:56:16;;;;;;;;;;;1.20;99.90;;;;;;4963433;28;19925;-72
2022/02/12 06:58:41;;;;;;;;;;;1.20;99.90;;;;;;4982093;28;20272;-72
2022/02/12 07:01:07;;;;;;;;;;;1.20;99.90;;;;;;4984847;28;19972;-71
2022/02/12 07:03:33;;;;;;;;;;;1.20;99.90;;;;;;4982311;28;19913;-71
2022/02/12 07:05:58;;;;;;;;;;;1.20;99.90;;;;;;4982635;28;19941;-71
2022/02/12 07:08:24;;;;;;;;;;;1.20;99.90;;;;;;4981173;28;19957;-74
2022/02/12 07:10:49;;;;;;;;;;;1.20;99.90;;;;;;4948519;28;19914;-71
2022/02/12 07:13:15;;;;;;;;;;;1.20;99.90;;;;;;4978438;28;19976;-71
2022/02/12 07:15:41;;;;;;;;;;;1.30;99.90;;;;;;4981966;28;19914;-72
2022/02/12 07:18:06;;;;;;;;;;;1.40;99.90;;;;;;4961261;28;19948;-72
2022/02/12 07:20:32;;;;;;;;;;;1.50;99.90;;;;;;4979708;28;19914;-71
2022/02/12 07:22:57;;;;;;;;;;;1.50;99.90;;;;;;4981161;28;19927;-72
2022/02/12 07:25:23;;;;;;;;;;;1.50;99.90;;;;;;4965433;28;19914;-71
2022/02/12 07:27:53;;;;;;;;;;;1.50;99.90;;;;;;4976608;28;20512;-73
2022/02/12 07:30:19;;;;;;;;;;;1.50;99.90;;;;;;4963286;28;20253;-72
2022/02/12 07:32:44;;;;;;;;;;;1.60;99.90;;;;;;4980267;28;19933;-73
2022/02/12 07:35:11;;;;;;;;;;;1.60;99.90;;;;;;4965902;28;20344;-72
2022/02/12 07:37:43;;;;;;;;;;;1.60;99.90;;;;;;4979681;28;19914;-73
2022/02/12 07:40:10;;;;;;;;;;;1.60;99.90;;;;;;4983077;28;19913;-72
2022/02/12 07:42:36;;;;;;;;;;;1.60;99.90;;;;;;4965215;28;19910;-72
2022/02/12 07:45:02;;;;;;;;;;;1.70;99.90;;;;;;4979480;28;20398;-72
2022/02/12 07:47:27;;;;;;;;;;;1.60;99.90;;;;;;4983475;28;19921;-74
2022/02/12 07:49:53;;;;;;;;;;;1.70;99.90;;;;;;4984065;28;20264;-73
2022/02/12 07:52:19;;;;;;;;;;;1.70;99.90;;;;;;4981057;28;19917;-73
2022/02/12 07:54:44;;;;;;;;;;;1.70;99.90;;;;;;4983175;28;19924;-73
2022/02/12 07:57:10;;;;;;;;;;;1.70;99.90;;;;;;4979139;28;20355;-72
2022/02/12 07:59:35;;;;;;;;;;;1.70;99.90;;;;;;4982523;28;19921;-72
2022/02/12 08:02:01;;;;;;;;;;;1.80;99.90;;;;;;4963708;28;20363;-71
2022/02/12 08:04:28;;;;;;;;;;;1.80;99.90;;;;;;4963759;28;19968;-72
2022/02/12 08:09:38;;;;;;;;;;;1.90;99.90;;;;;;4981099;28;20455;-72
2022/02/12 08:12:18;;;;;;;;;;;1.90;99.90;;;;;;4973846;28;20311;-72
2022/02/12 08:14:48;;;;;;;;;;;1.90;99.90;;;;;;4964785;28;19940;-73
2022/02/12 08:17:17;;;;;;;;;;;2.00;99.90;;;;;;4979118;28;19914;-72
2022/02/12 08:19:44;;;;;;;;;;;2.00;99.90;;;;;;4980790;28;19918;-72
2022/02/12 08:22:11;;;;;;;;;;;2.00;99.90;;;;;;4982358;28;19910;-72
2022/02/12 08:24:37;;;;;;;;;;;2.10;99.90;;;;;;4963070;28;19920;-72
2022/02/12 08:27:03;;;;;;;;;;;2.10;99.90;;;;;;4981103;28;19913;-72
2022/02/12 08:29:28;;;;;;;;;;;2.10;99.90;;;;;;4980391;28;19914;-72
2022/02/12 08:31:55;;;;;;;;;;;2.10;99.90;;;;;;4964728;28;19913;-72
2022/02/12 08:34:21;;;;;;;;;;;2.20;99.90;;;;;;4963455;28;19914;-72
2022/02/12 08:36:47;;;;;;;;;;;2.30;99.90;;;;;;4965303;28;19917;-71
2022/02/12 08:39:13;;;;;;;;;;;2.30;99.90;;;;;;4964278;28;19916;-72
2022/02/12 08:41:39;;;;;;;;;;;2.30;99.90;;;;;;4947953;28;19910;-72
2022/02/12 08:44:04;;;;;;;;;;;2.40;99.90;;;;;;4965424;28;19996;-72
2022/02/12 08:46:30;;;;;;;;;;;2.40;99.90;;;;;;4980695;28;19910;-71
2022/02/12 08:48:56;;;;;;;;;;;2.50;99.90;;;;;;4979799;28;19962;-71
2022/02/12 08:51:21;;;;;;;;;;;2.50;99.90;;;;;;4979706;28;20037;-72
2022/02/12 08:53:47;;;;;;;;;;;2.60;99.90;;;;;;4981691;28;19917;-71
2022/02/12 08:56:13;;;;;;;;;;;2.60;99.90;;;;;;4982767;28;19961;-73
2022/02/12 08:58:39;;;;;;;;;;;2.60;99.90;;;;;;4980069;28;19913;-73
2022/02/12 09:01:05;;;;;;;;;;;2.60;99.90;;;;;;4980964;28;19960;-72
2022/02/12 09:03:31;;;;;;;;;;;2.70;99.90;;;;;;4983915;28;19921;-71
2022/02/12 09:05:58;;;;;;;;;;;2.70;99.90;;;;;;4963364;28;19913;-72
2022/02/12 09:08:24;;;;;;;;;;;2.70;99.90;;;;;;4982564;28;19921;-73
2022/02/12 09:10:50;;;;;;;;;;;2.80;99.90;;;;;;4948904;28;19909;-73
2022/02/12 09:13:16;;;;;;;;;;;2.80;99.90;;;;;;4961493;28;19920;-73
2022/02/12 09:15:41;;;;;;;;;;;2.90;99.90;;;;;;4964163;28;19910;-72
2022/02/12 09:18:07;;;;;;;;;;;2.90;99.90;;;;;;4981325;28;19960;-73
2022/02/12 09:20:32;;;;;;;;;;;3.00;99.90;;;;;;4961852;28;19910;-72
2022/02/12 09:22:58;;;;;;;;;;;3.00;99.90;;;;;;4962770;28;20283;-73
2022/02/12 09:25:23;;;;;;;;;;;3.00;99.90;;;;;;4980431;28;19918;-72
2022/02/12 09:27:49;;;;;;;;;;;3.00;99.90;;;;;;4977578;28;20408;-72
2022/02/12 09:30:15;;;;;;;;;;;3.10;99.90;;;;;;4963906;28;19914;-73
2022/02/12 09:32:40;;;;;;;;;;;3.00;99.90;;;;;;4975054;28;19925;-73
2022/02/12 09:35:06;;;;;;;;;;;3.00;99.90;;;;;;4945574;28;20423;-73
2022/02/12 09:37:32;;;;;;;;;;;3.10;99.90;;;;;;4962664;28;19920;-70
2022/02/12 09:39:57;;;;;;;;;;;3.10;99.90;;;;;;4961530;28;19914;-72
2022/02/12 09:42:23;;;;;;;;;;;3.10;99.90;;;;;;4981123;28;20031;-73
2022/02/12 09:44:49;;;;;;;;;;;3.20;99.90;;;;;;4980584;28;19914;-72
2022/02/12 09:47:20;;;;;;;;;;;3.20;99.90;;;;;;4962234;28;19917;-72
2022/02/12 09:49:47;;;;;;;;;;;3.20;99.90;;;;;;4981574;28;19914;-72
2022/02/12 09:52:15;;;;;;;;;;;3.20;99.90;;;;;;4963356;28;19909;-72
2022/02/12 09:54:42;;;;;;;;;;;3.20;99.90;;;;;;4963130;28;20483;-72
2022/02/12 09:57:08;;;;;;;;;;;3.20;99.90;;;;;;4962514;28;19997;-73
2022/02/12 09:59:34;;;;;;;;;;;3.20;99.90;;;;;;4979757;28;20068;-73
2022/02/12 10:01:59;;;;;;;;;;;3.20;99.90;;;;;;4978233;28;19921;-73
2022/02/12 10:04:25;;;;;;;;;;;3.20;99.90;;;;;;4980737;28;19910;-72
2022/02/12 10:06:51;;;;;;;;;;;3.30;99.90;;;;;;4980625;28;19920;-73
2022/02/12 10:09:18;;;;;;;;;;;3.30;99.90;;;;;;4960975;28;20009;-69
2022/02/12 10:11:43;;;;;;;;;;;3.30;99.90;;;;;;4970506;28;19914;-74
2022/02/12 10:14:10;;;;;;;;;;;3.40;99.90;;;;;;4979239;28;19921;-74
2022/02/12 10:16:54;;;;;;;;;;;3.40;99.90;;;;;;4977092;28;19917;-71
2022/02/12 10:19:30;;;;;;;;;;;3.50;99.90;;;;;;4964395;28;20287;-73
2022/02/12 10:22:07;;;;;;;;;;;3.50;99.90;;;;;;4984235;28;20287;-74
2022/02/12 10:24:52;;;;;;;;;;;3.50;99.90;;;;;;4985576;28;19914;-73
2022/02/12 10:27:19;;;;;;;;;;;3.60;99.90;;;;;;4966845;28;19909;-75
2022/02/12 10:29:45;;;;;;;;;;;3.60;99.90;;;;;;4973493;28;19961;-73
2022/02/12 10:32:11;;;;;;;;;;;3.70;99.90;;;;;;4968634;28;20290;-73
2022/02/12 10:34:42;;;;;;;;;;;3.70;99.90;;;;;;4983445;28;20008;-73
2022/02/12 10:37:09;;;;;;;;;;;3.70;99.90;;;;;;4987865;28;19914;-74
2022/02/12 10:39:48;;;;;;;;;;;3.70;99.90;;;;;;4991446;28;19925;-73
2022/02/12 10:42:16;;;;;;;;;;;3.80;99.90;;;;;;4992189;28;19914;-73
2022/02/12 10:44:42;;;;;;;;;;;3.80;99.90;;;;;;4986505;28;19914;-73
2022/02/12 10:47:09;;;;;;;;;;;3.80;99.90;;;;;;4969040;28;19992;-74
2022/02/12 10:49:35;;;;;;;;;;;3.90;99.90;;;;;;4968461;28;20374;-73
2022/02/12 10:52:00;;;;;;;;;;;3.90;99.90;;;;;;4986632;28;19914;-73
2022/02/12 10:54:26;;;;;;;;;;;3.90;99.90;;;;;;4986509;28;19921;-74
2022/02/12 10:56:52;;;;;;;;;;;4.00;99.90;;;;;;4982986;28;19921;-72
2022/02/12 10:59:22;;;;;;;;;;;4.20;99.90;;;;;;4986485;28;20287;-72
2022/02/12 11:01:48;;;;;;;;;;;4.30;99.90;;;;;;4951053;28;20468;-72
2022/02/12 11:04:18;;;;;;;;;;;4.40;99.90;;;;;;4984269;28;19916;-72
2022/02/12 11:06:45;;;;;;;;;;;4.50;99.90;;;;;;4984798;28;19910;-73
2022/02/12 11:09:11;;;;;;;;;;;4.70;99.90;;;;;;4981526;28;19989;-74
2022/02/12 11:11:36;;;;;;;;;;;4.90;99.90;;;;;;4984652;28;20012;-73
2022/02/12 11:14:02;;;;;;;;;;;5.50;99.90;;;;;;4986996;28;19921;-73
2022/02/12 11:16:28;;;;;;;;;;;6.50;98.20;;;;;;4986186;28;19909;-73
2022/02/12 11:18:57;;;;;;;;;;;7.60;95.30;;;;;;4985175;28;19950;-71
2022/02/12 11:21:24;;;;;;;;;;;9.10;89.60;;;;;;4985439;28;19916;-74
2022/02/12 11:23:59;;;;;;;;;;;10.50;82.30;;;;;;4968852;28;19910;-71
2022/02/12 11:26:25;;;;;;;;;;;11.60;61.30;;;;;;4951194;28;19975;-74
2022/02/12 11:28:52;;;;;;;;;;;11.70;61.80;;;;;;4984433;28;20388;-70
2022/02/12 11:31:25;;;;;;;;;;;11.30;59.50;;;;;;4965572;28;20195;-73
2022/02/12 11:34:02;;;;;;;;;;;11.10;60.50;;;;;;4964215;28;19920;-71
2022/02/12 11:36:28;;;;;;;;;;;11.20;58.50;;;;;;4965968;28;19917;-72
2022/02/12 11:39:07;;;;;;;;;;;10.60;64.40;;;;;;4983612;28;19906;-73
2022/02/12 11:41:34;;;;;;;;;;;10.10;65.50;;;;;;4982266;28;19910;-72
2022/02/12 11:43:59;;;;;;;;;;;9.50;66.50;;;;;;4963272;28;20684;-72
2022/02/12 11:46:40;;;;;;;;;;;8.80;71.30;;;;;;4966837;28;20856;-75
2022/02/12 11:49:28;;;;;;;;;;;8.40;82.40;;;;;;4963632;28;19965;-73
2022/02/12 11:51:54;;;;;;;;;;;8.00;74.10;;;;;;4961982;28;20363;-72
2022/02/12 11:54:43;;;;;;;;;;;7.70;86.50;;;;;;4962769;28;19953;-72
2022/02/12 11:57:08;;;;;;;;;;;7.40;83.10;;;;;;4970640;28;20020;-73
2022/02/12 11:59:34;;;;;;;;;;;7.00;91.70;;;;;;5001667;23;20493;-74
2022/02/12 12:02:00;;;;;;;;;;;6.80;92.00;;;;;;4983397;28;19914;-73
2022/02/12 12:04:30;;;;;;;;;;;6.60;93.20;;;;;;4983247;28;20739;-75
2022/02/12 12:06:59;;;;;;;;;;;6.30;91.90;;;;;;4982526;28;20364;-74
2022/02/12 12:09:26;;;;;;;;;;;6.30;90.30;;;;;;4985724;28;20504;-73
2022/02/12 12:12:10;;;;;;;;;;;6.10;92.80;;;;;;4984659;28;19953;-73
2022/02/12 12:14:36;;;;;;;;;;;6.10;94.80;;;;;;4986172;28;20288;-74
2022/02/12 12:17:02;;;;;;;;;;;5.90;94.00;;;;;;4983801;28;19909;-74
2022/02/12 12:19:35;;;;;;;;;;;5.80;93.80;;;;;;4966965;28;19963;-74
2022/02/12 12:22:02;;;;;;;;;;;6.00;93.60;;;;;;4984867;28;19910;-75
2022/02/12 12:24:28;;;;;;;;;;;6.00;93.90;;;;;;4985354;28;19956;-74
2022/02/12 12:26:54;;;;;;;;;;;6.10;93.70;;;;;;4984807;28;19910;-73
2022/02/12 12:32:06;;;;;;;;;;;6.30;91.80;;;;;;4984685;28;20294;-74
2022/02/12 12:34:32;;;;;;;;;;;6.30;88.30;;;;;;4981516;28;19921;-73
2022/02/12 12:37:01;;;;;;;;;;;6.20;91.20;;;;;;4982853;28;19921;-74
2022/02/12 12:39:36;;;;;;;;;;;6.10;87.50;;;;;;4981106;28;19914;-74
2022/02/12 12:42:03;;;;;;;;;;;6.20;91.20;;;;;;4982273;28;20041;-75
2022/02/12 12:44:28;;;;;;;;;;;6.10;90.60;;;;;;4982124;28;20449;-75
2022/02/12 12:46:55;;;;;;;;;;;6.10;90.30;;;;;;4983958;28;19910;-74
2022/02/12 12:49:26;;;;;;;;;;;6.00;90.10;;;;;;4979934;28;19964;-74
2022/02/12 12:51:52;;;;;;;;;;;6.00;90.50;;;;;;4981425;28;19909;-73
2022/02/12 12:54:27;;;;;;;;;;;6.00;91.50;;;;;;4982321;28;19929;-74
2022/02/12 12:56:53;;;;;;;;;;;6.10;92.10;;;;;;4983060;28;20286;-74
2022/02/12 12:59:18;;;;;;;;;;;6.10;92.60;;;;;;4978847;28;20012;-74
2022/02/12 13:01:58;;;;;;;;;;;6.10;93.10;;;;;;4982518;28;20295;-75
2022/02/12 13:04:24;;;;;;;;;;;6.20;93.10;;;;;;4979644;28;19920;-75
2022/02/12 13:06:54;;;;;;;;;;;6.20;91.20;;;;;;4964591;28;19910;-74
2022/02/12 13:09:24;;;;;;;;;;;6.20;92.40;;;;;;4981966;28;19913;-74
2022/02/12 13:11:49;;;;;;;;;;;6.40;91.60;;;;;;4984713;28;19981;-74
2022/02/12 13:14:15;;;;;;;;;;;6.30;93.60;;;;;;4983882;28;19993;-75
2022/02/12 13:16:42;;;;;;;;;;;6.30;93.30;;;;;;4980164;28;19952;-74
2022/02/12 13:19:11;;;;;;;;;;;6.30;92.60;;;;;;4982332;28;19921;-74
2022/02/12 13:21:37;;;;;;;;;;;6.40;94.00;;;;;;4990326;28;19918;-74
2022/02/12 13:24:06;;;;;;;;;;;6.40;93.90;;;;;;4986609;28;20287;-75
2022/02/12 13:26:32;;;;;;;;;;;6.40;90.40;;;;;;4991513;28;20347;-75
2022/02/12 13:28:58;;;;;;;;;;;6.40;91.20;;;;;;4986586;28;19916;-74
2022/02/12 13:31:26;;;;;;;;;;;6.40;92.20;;;;;;4988827;28;20350;-75
2022/02/12 13:33:55;;;;;;;;;;;6.40;91.20;;;;;;4988239;28;19917;-73
2022/02/12 13:36:21;;;;;;;;;;;6.30;88.30;;;;;;4992102;28;19917;-75
2022/02/12 13:38:46;;;;;;;;;;;6.20;92.00;;;;;;4987775;28;19913;-73
2022/02/12 13:41:12;;;;;;;;;;;6.20;92.40;;;;;;4984528;28;20372;-74
2022/02/12 13:43:47;;;;;;;;;;;6.20;92.50;;;;;;4989275;28;19917;-74
2022/02/12 13:46:18;;;;;;;;;;;6.20;88.10;;;;;;4969127;28;19914;-74
2022/02/12 13:48:43;;;;;;;;;;;6.20;91.00;;;;;;4986552;28;19967;-72
2022/02/12 13:51:11;;;;;;;;;;;6.20;90.20;;;;;;4987925;28;20012;-74
2022/02/12 13:53:41;;;;;;;;;;;6.20;90.60;;;;;;4986792;28;19917;-75
2022/02/12 13:56:07;;;;;;;;;;;6.20;91.50;;;;;;4987187;28;19945;-73
2022/02/12 13:58:32;;;;;;;;;;;6.20;91.50;;;;;;4989535;28;20007;-72
2022/02/12 14:01:00;;;;;;;;;;;6.10;89.30;;;;;;4989583;28;20563;-74
2022/02/12 14:03:32;;;;;;;;;;;6.10;90.10;;;;;;4990534;28;19979;-75
2022/02/12 14:05:59;;;;;;;;;;;6.10;88.90;;;;;;4988031;28;20032;-74
2022/02/12 14:08:24;;;;;;;;;;;6.00;90.60;;;;;;4995017;28;20462;-75
2022/02/12 14:10:50;;;;;;;;;;;6.00;92.40;;;;;;4992724;28;19909;-73
2022/02/12 14:13:16;;;;;;;;;;;6.00;92.50;;;;;;4994886;28;19914;-73
2022/02/12 14:15:41;;;;;;;;;;;5.90;92.20;;;;;;4988709;28;19906;-73
2022/02/12 14:18:07;;;;;;;;;;;5.90;92.60;;;;;;4996547;28;19976;-73
2022/02/12 14:20:33;;;;;;;;;;;5.90;91.80;;;;;;4988107;28;19910;-74
2022/02/12 14:22:59;;;;;;;;;;;5.80;93.70;;;;;;4996059;28;19933;-72
2022/02/12 14:25:25;;;;;;;;;;;5.80;94.00;;;;;;4993334;28;20000;-73
2022/02/12 14:27:51;;;;;;;;;;;5.80;94.60;;;;;;4995775;28;20371;-74
2022/02/12 14:30:16;;;;;;;;;;;5.80;93.00;;;;;;4974537;28;19912;-73
2022/02/12 14:32:42;;;;;;;;;;;5.80;93.80;;;;;;4992283;28;19960;-74
2022/02/12 14:35:07;;;;;;;;;;;5.70;94.40;;;;;;4993215;28;19910;-74
2022/02/12 14:37:33;;;;;;;;;;;5.70;94.90;;;;;;4992694;28;19993;-73